Time;durP1;ratioP1;P1;durP2;ratioP2;P2;SDS_P1;SDS_P2;PMS_P1;PMS_P2;Temp;Humidity;BMP_temperature;BMP_pressure;BME280_temperature;BME280_humidity;BME280_pressure;Samples;Min_cycle;Max_cycle;Signal;HPM_P1;HPM_P2
2024/01/17 00:01:54;;;;;;;7.47;2.42;;;;;;;-0.21;100.00;99115.91;5073367;28;20386;-71
2024/01/17 00:04:20;;;;;;;8.60;2.15;;;;;;;-0.19;100.00;99111.28;5074577;28;20039;-70
2024/01/17 00:06:45;;;;;;;10.32;2.58;;;;;;;-0.19;100.00;99113.94;5072942;28;20115;-70
2024/01/17 00:09:11;;;;;;;11.82;2.40;;;;;;;-0.19;100.00;99113.13;5073578;28;20052;-71
2024/01/17 00:11:37;;;;;;;8.80;2.30;;;;;;;-0.21;100.00;99107.97;5074189;28;20024;-71
2024/01/17 00:14:02;;;;;;;8.35;2.03;;;;;;;-0.20;100.00;99092.94;5073539;28;20438;-70
2024/01/17 00:16:28;;;;;;;13.75;2.53;;;;;;;-0.19;100.00;99098.06;5073832;28;20029;-71
2024/01/17 00:18:55;;;;;;;11.32;2.38;;;;;;;-0.22;100.00;99097.59;5071756;28;20123;-71
2024/01/17 00:21:20;;;;;;;9.70;2.13;;;;;;;-0.28;100.00;99093.81;5074387;28;20052;-71
2024/01/17 00:23:48;;;;;;;8.82;2.42;;;;;;;-0.48;100.00;99059.03;5072523;28;20052;-71
2024/01/17 00:26:13;;;;;;;8.30;2.70;;;;;;;-0.61;100.00;99032.34;5072581;28;20040;-71
2024/01/17 00:28:38;;;;;;;7.25;2.03;;;;;;;-0.31;100.00;99083.56;5073472;28;20035;-71
2024/01/17 00:31:04;;;;;;;11.18;2.60;;;;;;;-0.31;100.00;99081.75;5055882;28;20375;-70
2024/01/17 00:33:30;;;;;;;11.60;2.60;;;;;;;-0.28;100.00;99077.94;5072489;28;20076;-71
2024/01/17 00:35:55;;;;;;;13.65;3.25;;;;;;;-0.31;100.00;99071.19;5072619;28;20071;-71
2024/01/17 00:38:22;;;;;;;9.02;2.03;;;;;;;-0.31;100.00;99070.38;5071349;28;20032;-71
2024/01/17 00:40:47;;;;;;;8.05;2.47;;;;;;;-0.31;100.00;99067.72;5072466;28;20032;-71
2024/01/17 00:43:12;;;;;;;12.77;2.80;;;;;;;-0.32;100.00;99064.25;5073249;28;20748;-71
2024/01/17 00:45:39;;;;;;;10.02;2.28;;;;;;;-0.29;100.00;99068.38;5072541;28;20095;-71
2024/01/17 00:48:05;;;;;;;7.07;2.20;;;;;;;-0.29;100.00;99056.00;5072516;28;20036;-71
2024/01/17 00:50:30;;;;;;;7.72;2.35;;;;;;;-0.62;100.00;98993.72;5088661;28;20051;-71
2024/01/17 00:52:56;;;;;;;9.20;2.42;;;;;;;-0.25;100.00;99044.06;5089018;28;20028;-70
2024/01/17 00:55:21;;;;;;;8.27;1.80;;;;;;;-0.25;100.00;99038.78;5071343;28;20040;-70
2024/01/17 00:57:46;;;;;;;10.13;2.15;;;;;;;-0.24;100.00;99027.22;5053439;28;20044;-71
2024/01/17 01:00:12;;;;;;;9.30;2.22;;;;;;;-0.22;100.00;99021.75;5070494;28;20043;-71
2024/01/17 01:02:37;;;;;;;11.55;2.38;;;;;;;-0.21;100.00;99012.00;5071385;28;20029;-71
2024/01/17 01:05:03;;;;;;;6.95;2.40;;;;;;;-0.18;100.00;99001.09;5053962;28;20085;-71
2024/01/17 01:07:30;;;;;;;10.27;2.25;;;;;;;-0.17;100.00;99008.84;5087169;28;20028;-71
2024/01/17 01:09:55;;;;;;;17.67;2.88;;;;;;;-0.18;100.00;98991.34;5070785;28;20512;-71
2024/01/17 01:12:23;;;;;;;9.90;2.75;;;;;;;-0.15;100.00;98990.16;5071725;28;20032;-71
2024/01/17 01:14:48;;;;;;;13.57;2.28;;;;;;;-0.15;100.00;98979.59;5053628;28;20031;-70
2024/01/17 01:17:14;;;;;;;10.02;2.10;;;;;;;-0.14;100.00;98982.06;5086936;28;20424;-71
2024/01/17 01:19:39;;;;;;;11.13;2.58;;;;;;;-0.15;100.00;98977.78;5086611;28;20032;-70
2024/01/17 01:22:05;;;;;;;12.82;2.20;;;;;;;-0.13;100.00;98973.16;5086370;28;20075;-71
2024/01/17 01:24:30;;;;;;;11.20;2.78;;;;;;;-0.09;100.00;98968.31;5069333;28;20037;-71
2024/01/17 01:26:55;;;;;;;10.25;2.80;;;;;;;-0.08;100.00;98965.50;5053276;28;20396;-71
2024/01/17 01:29:21;;;;;;;10.73;2.83;;;;;;;-0.05;100.00;98964.31;5080155;28;20477;-71
2024/01/17 01:31:46;;;;;;;9.35;2.80;;;;;;;-0.05;100.00;98953.75;5071967;28;20259;-71
2024/01/17 01:34:11;;;;;;;12.35;2.83;;;;;;;-0.26;100.00;98912.94;5078139;28;20056;-71
2024/01/17 01:36:37;;;;;;;12.13;2.75;;;;;;;-0.07;100.00;98942.50;5070039;28;20509;-70
2024/01/17 01:39:02;;;;;;;12.25;2.55;;;;;;;-0.07;100.00;98930.13;5071814;28;20033;-70
2024/01/17 01:41:27;;;;;;;12.00;2.70;;;;;;;-0.05;100.00;98928.13;5072174;28;20661;-71
2024/01/17 01:43:53;;;;;;;11.73;2.60;;;;;;;-0.06;100.00;98917.75;5071901;28;20025;-70
2024/01/17 01:46:23;;;;;;;10.35;2.70;;;;;;;-0.03;100.00;98912.09;5071832;28;20115;-71
2024/01/17 01:48:49;;;;;;;13.32;3.20;;;;;;;-0.12;100.00;98890.19;5072305;28;20025;-71
2024/01/17 01:51:15;;;;;;;13.45;2.78;;;;;;;-0.06;100.00;98886.03;5074809;28;20499;-70
2024/01/17 01:53:48;;;;;;;14.10;2.95;;;;;;;-0.04;100.00;98887.47;5073713;28;20028;-71
2024/01/17 01:56:17;;;;;;;12.25;2.40;;;;;;;-0.04;100.00;98886.66;5075807;28;20486;-70
2024/01/17 01:58:46;;;;;;;8.52;2.17;;;;;;;-0.11;100.00;98865.38;5075485;28;20090;-70
2024/01/17 02:01:15;;;;;;;9.30;2.17;;;;;;;-0.09;100.00;98860.75;5076441;28;20031;-70
2024/01/17 02:03:43;;;;;;;7.80;1.90;;;;;;;0.00;100.00;98866.81;5074358;28;20043;-71
2024/01/17 02:06:10;;;;;;;11.45;2.30;;;;;;;-0.14;100.00;98831.38;5075181;28;20024;-70
2024/01/17 02:08:36;;;;;;;10.55;1.92;;;;;;;0.01;100.00;98854.41;5074652;28;20378;-70
2024/01/17 02:11:01;;;;;;;15.48;1.95;;;;;;;0.03;100.00;98849.72;5077032;28;20026;-71
2024/01/17 02:13:27;;;;;;;12.77;1.67;;;;;;;0.03;100.00;98844.44;5085428;28;20028;-71
2024/01/17 02:15:53;;;;;;;10.80;1.90;;;;;;;0.03;100.00;98841.81;5076960;28;20032;-71
2024/01/17 02:18:18;;;;;;;10.40;1.40;;;;;;;0.06;100.00;98836.16;5092421;28;20017;-68
2024/01/17 02:20:44;;;;;;;10.38;1.60;;;;;;;0.02;100.00;98816.38;5058164;28;20509;-71
2024/01/17 02:23:26;;;;;;;8.93;1.60;;;;;;;0.09;100.00;98807.53;5076173;28;20107;-70
2024/01/17 02:25:53;;;;;;;13.98;1.92;;;;;;;0.13;100.00;98803.53;5074473;28;20123;-71
2024/01/17 02:28:18;;;;;;;14.43;1.73;;;;;;;0.19;100.00;98807.25;5074629;28;20554;-71
2024/01/17 02:30:46;;;;;;;7.57;1.75;;;;;;;0.21;100.00;98795.50;5075172;28;20079;-71
2024/01/17 02:33:13;;;;;;;9.75;1.27;;;;;;;0.19;100.00;98780.81;5075852;28;20028;-71
2024/01/17 02:35:38;;;;;;;15.68;1.80;;;;;;;0.13;100.00;98755.94;5091460;28;20577;-71
2024/01/17 02:38:04;;;;;;;19.27;2.10;;;;;;;0.16;100.00;98754.72;5076449;28;20056;-71
2024/01/17 02:40:29;;;;;;;12.15;1.58;;;;;;;0.29;100.00;98762.03;5090979;28;20032;-71
2024/01/17 02:42:55;;;;;;;10.75;1.38;;;;;;;0.14;100.00;98731.13;5057617;28;20028;-71
2024/01/17 02:45:21;;;;;;;20.83;1.77;;;;;;;0.31;100.00;98760.84;5091769;28;20051;-71
2024/01/17 02:47:46;;;;;;;13.00;1.50;;;;;;;0.34;100.00;98746.44;5074578;28;20044;-70
2024/01/17 02:50:15;;;;;;;10.82;1.83;;;;;;;0.33;100.00;98758.84;5057517;28;20032;-71
2024/01/17 02:52:41;;;;;;;10.48;1.75;;;;;;;0.34;100.00;98736.69;5075503;28;20086;-71
2024/01/17 02:55:09;;;;;;;12.52;2.20;;;;;;;0.01;100.00;98659.56;5078279;28;20275;-72
2024/01/17 02:57:35;;;;;;;15.48;1.83;;;;;;;0.38;100.00;98719.44;5079599;28;20028;-71
2024/01/17 03:00:00;;;;;;;9.32;1.25;;;;;;;0.25;100.00;98679.59;5074631;28;20037;-70
2024/01/17 03:02:26;;;;;;;10.80;1.27;;;;;;;0.36;100.00;98691.50;5090343;28;20033;-71
2024/01/17 03:04:51;;;;;;;10.05;1.48;;;;;;;0.28;100.00;98671.28;5091069;28;20127;-70
2024/01/17 03:07:17;;;;;;;13.65;1.58;;;;;;;0.42;100.00;98691.59;5075745;28;20052;-71
2024/01/17 03:09:43;;;;;;;14.38;1.85;;;;;;;0.44;100.00;98684.28;5073773;28;20039;-72
2024/01/17 03:12:08;;;;;;;12.93;1.88;;;;;;;0.33;100.00;98654.84;5073819;28;20024;-70
2024/01/17 03:14:34;;;;;;;12.13;2.80;;;;;;;0.49;100.00;98659.09;5090827;28;20028;-70
2024/01/17 03:16:59;;;;;;;14.90;1.92;;;;;;;0.51;100.00;98635.94;5075206;28;20058;-71
2024/01/17 03:19:24;;;;;;;15.30;2.40;;;;;;;0.50;100.00;98619.22;5075444;28;20471;-71
2024/01/17 03:21:50;;;;;;;15.00;1.92;;;;;;;0.46;100.00;98600.28;5073979;28;20032;-71
2024/01/17 03:24:16;;;;;;;11.45;1.70;;;;;;;0.49;100.00;98603.53;5057712;28;20032;-71
2024/01/17 03:26:42;;;;;;;9.05;1.77;;;;;;;0.45;100.00;98588.03;5073446;28;20123;-71
2024/01/17 03:29:07;;;;;;;11.35;1.85;;;;;;;0.46;100.00;98576.47;5073809;28;20119;-71
2024/01/17 03:31:32;;;;;;;13.80;2.28;;;;;;;0.46;100.00;98560.59;5073499;28;20479;-71
2024/01/17 03:33:58;;;;;;;17.67;2.15;;;;;;;0.44;100.00;98530.84;5074471;28;20566;-71
2024/01/17 03:36:23;;;;;;;15.82;2.55;;;;;;;0.47;100.00;98533.09;5075011;28;20043;-71
2024/01/17 03:38:48;;;;;;;19.83;3.10;;;;;;;0.46;100.00;98518.25;5059966;28;20032;-71
2024/01/17 03:41:14;;;;;;;21.83;2.53;;;;;;;0.37;100.00;98492.94;5063425;28;20154;-71
2024/01/17 03:43:39;;;;;;;20.75;2.88;;;;;;;0.44;100.00;98503.56;5074381;28;20108;-71
2024/01/17 03:46:05;;;;;;;18.75;2.25;;;;;;;0.42;100.00;98474.66;5071908;28;20032;-71
2024/01/17 03:48:31;;;;;;;21.13;2.35;;;;;;;0.39;100.00;98461.78;5071323;28;20036;-70
2024/01/17 03:50:57;;;;;;;12.07;2.00;;;;;;;0.46;100.00;98465.34;5072845;28;20032;-71
2024/01/17 03:53:23;;;;;;;13.90;2.78;;;;;;;0.46;100.00;98457.41;5072841;28;20021;-71
2024/01/17 03:55:48;;;;;;;11.82;2.00;;;;;;;0.45;100.00;98436.41;5087610;28;20028;-71
2024/01/17 03:58:13;;;;;;;17.08;2.47;;;;;;;0.20;100.00;98375.19;5070632;28;20048;-71
2024/01/17 04:00:39;;;;;;;11.80;2.20;;;;;;;0.49;100.00;98407.72;5073288;28;20032;-71
2024/01/17 04:03:04;;;;;;;16.30;2.42;;;;;;;0.47;100.00;98395.53;5073610;28;20029;-71
2024/01/17 04:05:30;;;;;;;15.23;2.60;;;;;;;0.45;100.00;98372.91;5089388;28;20033;-70
2024/01/17 04:07:55;;;;;;;14.07;2.53;;;;;;;0.39;100.00;98371.03;5073833;28;20498;-71
2024/01/17 04:10:21;;;;;;;13.85;2.25;;;;;;;0.36;100.00;98368.78;5074166;28;20039;-70
2024/01/17 04:12:46;;;;;;;13.40;2.90;;;;;;;0.31;100.00;98353.50;5073224;28;20062;-71
2024/01/17 04:15:12;;;;;;;16.67;3.17;;;;;;;0.28;100.00;98331.91;5073171;28;20032;-70
2024/01/17 04:17:38;;;;;;;17.08;3.00;;;;;;;0.26;100.00;98326.78;5072717;28;20031;-71
2024/01/17 04:20:05;;;;;;;21.40;3.28;;;;;;;0.21;100.00;98303.59;5073152;28;20028;-71
2024/01/17 04:22:31;;;;;;;15.60;3.63;;;;;;;0.19;100.00;98292.38;5072497;28;20037;-71
2024/01/17 04:24:56;;;;;;;12.13;3.85;;;;;;;0.16;100.00;98281.38;5089683;28;20044;-70
2024/01/17 04:27:22;;;;;;;12.45;2.95;;;;;;;-0.01;100.00;98257.88;5073690;28;20024;-70
2024/01/17 04:29:47;;;;;;;22.10;5.13;;;;;;;0.06;100.00;98241.25;5072686;28;20029;-71
2024/01/17 04:32:13;;;;;;;20.75;5.60;;;;;;;0.03;100.00;98239.00;5055426;28;20461;-71
2024/01/17 04:34:38;;;;;;;23.08;5.53;;;;;;;-0.01;100.00;98220.88;5071487;28;20146;-70
2024/01/17 04:37:03;;;;;;;12.57;4.47;;;;;;;-0.05;100.00;98210.88;5072200;28;20028;-71
2024/01/17 04:39:29;;;;;;;14.85;4.78;;;;;;;-0.11;100.00;98188.69;5088418;28;20078;-70
2024/01/17 04:41:56;;;;;;;15.82;4.43;;;;;;;-0.17;100.00;98178.06;5071365;28;20043;-71
2024/01/17 04:44:21;;;;;;;12.23;4.38;;;;;;;-0.21;100.00;98172.38;5072256;28;20055;-71
2024/01/17 04:46:47;;;;;;;11.77;4.85;;;;;;;-0.27;100.00;98144.06;5055438;28;20062;-70
2024/01/17 04:49:12;;;;;;;11.27;4.25;;;;;;;-0.28;100.00;98129.25;5071637;28;20475;-70
2024/01/17 04:51:40;;;;;;;13.77;4.88;;;;;;;-0.30;100.00;98108.31;5071629;28;20024;-70
2024/01/17 04:54:07;;;;;;;12.43;4.55;;;;;;;-0.47;100.00;98085.84;5071685;28;20016;-70
2024/01/17 04:56:32;;;;;;;11.38;4.80;;;;;;;-0.33;100.00;98086.72;5071281;28;20147;-70
2024/01/17 04:58:57;;;;;;;15.68;6.10;;;;;;;-0.32;100.00;98077.81;5072866;28;20028;-71
2024/01/17 05:01:23;;;;;;;20.33;7.95;;;;;;;-0.37;100.00;98077.56;5070996;28;20533;-70
2024/01/17 05:03:48;;;;;;;15.57;7.47;;;;;;;-0.40;100.00;98073.47;5072157;28;20024;-71
2024/01/17 05:06:14;;;;;;;14.70;5.93;;;;;;;-0.55;100.00;98041.13;5071015;28;20070;-69
2024/01/17 05:08:39;;;;;;;11.15;6.60;;;;;;;-0.43;100.00;98062.50;5071964;28;20036;-70
2024/01/17 05:11:05;;;;;;;13.27;7.32;;;;;;;-0.45;100.00;98048.69;5072119;28;20031;-70
2024/01/17 05:13:30;;;;;;;22.10;10.55;;;;;;;-0.62;100.00;98024.44;5070655;28;20103;-70
2024/01/17 05:16:01;;;;;;;18.48;10.15;;;;;;;-0.49;100.00;98042.97;5070451;28;20329;-70
2024/01/17 05:18:27;;;;;;;26.30;9.55;;;;;;;-0.45;100.00;98030.19;5071913;28;20040;-70
2024/01/17 05:20:52;;;;;;;21.08;9.57;;;;;;;-0.45;100.00;98040.75;5070884;28;20037;-69
2024/01/17 05:23:18;;;;;;;20.52;9.93;;;;;;;-0.56;100.00;98029.75;5070331;28;20483;-70
2024/01/17 05:25:43;;;;;;;18.17;10.30;;;;;;;-0.40;100.00;98033.84;5057291;28;20032;-69
2024/01/17 05:28:08;;;;;;;16.50;10.10;;;;;;;-0.41;100.00;98028.78;5074401;28;20086;-71
2024/01/17 05:30:34;;;;;;;25.40;10.95;;;;;;;-0.38;100.00;98020.47;5057581;28;20116;-71
2024/01/17 05:32:59;;;;;;;22.02;11.48;;;;;;;-0.38;100.00;98031.03;5075460;28;20085;-71
2024/01/17 05:35:27;;;;;;;22.77;10.27;;;;;;;-0.35;100.00;98001.59;5073968;28;20566;-71
2024/01/17 05:37:52;;;;;;;24.38;13.65;;;;;;;-0.34;100.00;98011.94;5058090;28;20115;-71
2024/01/17 05:40:18;;;;;;;25.13;11.40;;;;;;;-0.32;100.00;97995.91;5075919;28;20098;-71
2024/01/17 05:42:45;;;;;;;21.25;12.27;;;;;;;-0.31;100.00;98005.44;5074512;28;20021;-71
2024/01/17 05:45:10;;;;;;;31.90;15.60;;;;;;;-0.28;100.00;98011.16;5076001;28;20471;-71
2024/01/17 05:47:37;;;;;;;34.58;15.18;;;;;;;-0.27;100.00;98004.84;5074189;28;20036;-71
2024/01/17 05:50:09;;;;;;;23.33;13.25;;;;;;;-0.23;100.00;97989.44;5057760;28;20493;-71
2024/01/17 05:52:39;;;;;;;21.17;12.00;;;;;;;-0.32;100.00;97982.69;5075187;28;20048;-70
2024/01/17 05:55:09;;;;;;;30.75;17.67;;;;;;;-0.35;100.00;97932.88;5057687;28;20032;-71
2024/01/17 05:57:35;;;;;;;23.92;13.15;;;;;;;-0.19;100.00;97966.88;5075187;28;20028;-71
2024/01/17 06:00:01;;;;;;;30.42;15.93;;;;;;;-0.21;100.00;97971.53;5057067;28;20047;-71
2024/01/17 06:02:27;;;;;;;34.13;17.15;;;;;;;-0.18;100.00;97960.56;5075289;28;20487;-71
2024/01/17 06:04:54;;;;;;;30.75;17.40;;;;;;;-0.19;100.00;97943.09;5075147;28;20134;-71
2024/01/17 06:07:19;;;;;;;30.92;17.40;;;;;;;-0.15;100.00;97951.44;5056973;28;20036;-71
2024/01/17 06:09:45;;;;;;;33.17;14.40;;;;;;;-0.13;100.00;97936.16;5073904;28;20036;-71
2024/01/17 06:12:11;;;;;;;26.48;13.20;;;;;;;-0.13;100.00;97939.66;5072185;28;20152;-72
2024/01/17 06:14:36;;;;;;;30.85;17.27;;;;;;;-0.09;100.00;97948.00;5054772;28;20119;-71
2024/01/17 06:17:02;;;;;;;27.58;16.38;;;;;;;-0.07;100.00;97916.88;5072772;28;20024;-71
2024/01/17 06:19:28;;;;;;;27.30;14.43;;;;;;;-0.03;100.00;97931.34;5072485;28;20062;-71
2024/01/17 06:21:53;;;;;;;27.80;14.00;;;;;;;0.00;100.00;97915.06;5072167;28;20032;-70
2024/01/17 06:24:18;;;;;;;25.90;12.57;;;;;;;0.05;100.00;97920.53;5054081;28;20486;-70
2024/01/17 06:26:44;;;;;;;33.03;16.02;;;;;;;0.07;100.00;97928.28;5071596;28;20040;-71
2024/01/17 06:29:10;;;;;;;32.40;12.93;;;;;;;0.10;100.00;97920.75;5074576;28;20452;-71
2024/01/17 06:31:35;;;;;;;38.78;18.45;;;;;;;0.12;100.00;97912.63;5072995;28;20029;-71
2024/01/17 06:34:01;;;;;;;38.90;17.52;;;;;;;0.14;100.00;97929.91;5074574;28;20027;-71
2024/01/17 06:36:26;;;;;;;43.08;18.40;;;;;;;0.09;100.00;97913.03;5039239;28;20032;-71
2024/01/17 06:38:52;;;;;;;39.35;16.90;;;;;;;0.19;100.00;97921.34;5056725;28;20036;-71
2024/01/17 06:41:18;;;;;;;35.95;15.50;;;;;;;0.21;100.00;97927.28;5074163;28;20090;-71
2024/01/17 06:43:44;;;;;;;34.78;16.15;;;;;;;0.24;100.00;97908.34;5074011;28;20083;-71
2024/01/17 06:46:10;;;;;;;39.92;15.60;;;;;;;0.27;100.00;97925.66;5072795;28;20028;-71
2024/01/17 06:48:36;;;;;;;37.70;14.55;;;;;;;0.24;100.00;97913.66;5055987;28;20047;-71
2024/01/17 06:51:02;;;;;;;28.08;10.25;;;;;;;0.31;100.00;97911.81;5074383;28;20442;-71
2024/01/17 06:53:28;;;;;;;33.95;11.18;;;;;;;0.32;100.00;97909.97;5089048;28;20483;-72
2024/01/17 06:55:53;;;;;;;30.35;10.43;;;;;;;0.35;100.00;97907.72;5089501;28;20039;-72
2024/01/17 06:58:19;;;;;;;31.40;10.20;;;;;;;0.37;100.00;97910.19;5072473;28;20047;-72
2024/01/17 07:00:45;;;;;;;30.52;9.50;;;;;;;0.36;100.00;97921.75;5056119;28;20039;-72
2024/01/17 07:03:10;;;;;;;21.80;7.78;;;;;;;0.34;100.00;97898.19;5088764;28;20114;-72
2024/01/17 07:05:36;;;;;;;26.15;10.07;;;;;;;0.38;100.00;97925.84;5072068;28;20024;-72
2024/01/17 07:08:02;;;;;;;30.23;9.95;;;;;;;0.31;100.00;97892.47;5071579;28;20086;-72
2024/01/17 07:10:27;;;;;;;28.20;8.48;;;;;;;0.38;100.00;97883.50;5088044;28;20482;-72
2024/01/17 07:12:53;;;;;;;25.00;7.53;;;;;;;0.44;100.00;97887.19;5054629;28;20078;-72
2024/01/17 07:15:18;;;;;;;38.42;7.53;;;;;;;0.46;100.00;97888.59;5071397;28;20058;-72
2024/01/17 07:17:44;;;;;;;20.90;4.97;;;;;;;0.33;100.00;97864.81;5088055;28;20029;-71
2024/01/17 07:20:10;;;;;;;14.15;3.28;;;;;;;0.45;100.00;97894.91;5071591;28;20044;-72
2024/01/17 07:22:42;;;;;;;22.80;3.55;;;;;;;0.44;100.00;97906.50;5088071;28;20040;-71
2024/01/17 07:25:12;;;;;;;16.30;3.45;;;;;;;0.46;100.00;97904.47;5071560;28;20029;-72
2024/01/17 07:27:43;;;;;;;13.57;3.10;;;;;;;0.48;100.00;97906.91;5055254;28;20489;-72
2024/01/17 07:30:13;;;;;;;15.30;2.78;;;;;;;0.51;100.00;97910.97;5071785;28;20056;-72
2024/01/17 07:32:39;;;;;;;18.58;3.60;;;;;;;0.53;100.00;97914.22;5072658;28;20103;-72
2024/01/17 07:35:05;;;;;;;15.95;3.35;;;;;;;0.54;100.00;97900.00;5072767;28;20060;-72
2024/01/17 07:37:31;;;;;;;19.42;3.17;;;;;;;0.52;100.00;97920.53;5072711;28;20020;-72
2024/01/17 07:39:57;;;;;;;17.48;3.22;;;;;;;0.49;100.00;97907.72;5071459;28;20039;-72
2024/01/17 07:42:22;;;;;;;20.27;2.85;;;;;;;0.27;100.00;97870.13;5071423;28;20024;-72
2024/01/17 07:44:48;;;;;;;12.07;1.90;;;;;;;0.45;100.00;97905.47;5088018;28;20094;-72
2024/01/17 07:47:14;;;;;;;13.75;1.95;;;;;;;0.45;100.00;97902.84;5087265;28;20395;-73
2024/01/17 07:49:39;;;;;;;16.40;1.88;;;;;;;0.41;100.00;97906.09;5072477;28;20027;-72
2024/01/17 07:52:05;;;;;;;7.60;1.33;;;;;;;0.36;100.00;97900.59;5054340;28;20376;-72
2024/01/17 07:54:32;;;;;;;8.77;1.35;;;;;;;0.40;100.00;97913.22;5071904;28;20475;-72
2024/01/17 07:56:57;;;;;;;15.45;1.90;;;;;;;0.41;100.00;97911.41;5072548;28;20095;-71
2024/01/17 07:59:22;;;;;;;11.45;1.65;;;;;;;0.50;100.00;97926.03;5072736;28;20063;-70
2024/01/17 08:01:51;;;;;;;15.48;2.10;;;;;;;0.44;100.00;97917.09;5073827;28;20036;-72
2024/01/17 08:04:17;;;;;;;14.90;1.73;;;;;;;0.45;100.00;97913.41;5076327;28;20167;-72
2024/01/17 08:06:45;;;;;;;10.55;1.88;;;;;;;0.42;100.00;97902.44;5072069;28;20074;-71
2024/01/17 08:09:26;;;;;;;16.90;2.15;;;;;;;0.46;100.00;97896.53;5071514;28;20032;-71
2024/01/17 08:11:53;;;;;;;18.25;2.10;;;;;;;0.47;100.00;97918.50;5087849;28;20117;-71
2024/01/17 08:14:19;;;;;;;15.23;1.80;;;;;;;0.44;100.00;97917.09;5073058;28;20498;-71
2024/01/17 08:16:46;;;;;;;10.70;1.55;;;;;;;0.48;100.00;97914.84;5071171;28;20445;-71
2024/01/17 08:19:12;;;;;;;17.88;1.70;;;;;;;0.49;100.00;97905.88;5087986;28;20483;-71
2024/01/17 08:21:37;;;;;;;14.38;1.98;;;;;;;0.52;100.00;97902.00;5071533;28;20043;-72
2024/01/17 08:24:03;;;;;;;14.90;2.08;;;;;;;0.50;100.00;97904.03;5071589;28;20036;-72
2024/01/17 08:26:28;;;;;;;13.15;2.05;;;;;;;0.40;100.00;97886.78;5088490;28;20028;-71
2024/01/17 08:28:54;;;;;;;17.33;2.13;;;;;;;0.55;100.00;97901.59;5072936;28;20475;-72
2024/01/17 08:31:20;;;;;;;13.30;1.77;;;;;;;0.45;100.00;97889.59;5088537;28;20382;-72
2024/01/17 08:33:45;;;;;;;6.63;1.33;;;;;;;0.27;100.00;97872.75;5071671;28;20048;-72
2024/01/17 08:36:12;;;;;;;20.25;1.95;;;;;;;0.45;100.00;97904.66;5070623;28;20048;-71
2024/01/17 08:38:37;;;;;;;16.75;1.65;;;;;;;0.39;100.00;97897.53;5071082;28;20111;-71
2024/01/17 08:41:03;;;;;;;14.50;2.00;;;;;;;0.31;100.00;97895.13;5054574;28;20119;-71
2024/01/17 08:43:28;;;;;;;10.63;1.42;;;;;;;0.22;100.00;97876.00;5070469;28;20028;-71
2024/01/17 08:45:54;;;;;;;9.68;1.63;;;;;;;0.13;100.00;97887.78;5071282;28;20063;-71
2024/01/17 08:48:20;;;;;;;8.65;1.65;;;;;;;0.09;100.00;97881.28;5072444;28;20037;-71
2024/01/17 08:50:45;;;;;;;12.95;1.58;;;;;;;0.04;100.00;97881.09;5053496;28;20032;-71
2024/01/17 08:53:11;;;;;;;12.27;1.30;;;;;;;0.02;100.00;97881.28;5054460;28;20028;-72
2024/01/17 08:55:36;;;;;;;10.32;1.27;;;;;;;0.02;100.00;97875.19;5069871;28;20522;-71
2024/01/17 08:58:01;;;;;;;12.77;1.70;;;;;;;0.11;100.00;97879.28;5070663;28;20029;-72
2024/01/17 09:00:27;;;;;;;11.18;1.40;;;;;;;0.13;100.00;97867.47;5076814;28;20035;-72
2024/01/17 09:02:52;;;;;;;7.90;1.05;;;;;;;0.13;100.00;97879.88;5071171;28;20481;-71
2024/01/17 09:05:20;;;;;;;8.70;1.33;;;;;;;0.01;100.00;97841.88;5070949;28;20025;-72
2024/01/17 09:07:48;;;;;;;11.27;1.27;;;;;;;0.13;100.00;97877.22;5087249;28;20108;-71
2024/01/17 09:10:14;;;;;;;11.73;1.70;;;;;;;0.11;100.00;97871.34;5071183;28;20048;-71
2024/01/17 09:12:39;;;;;;;12.40;1.60;;;;;;;0.11;100.00;97869.50;5071595;28;20075;-72
2024/01/17 09:15:05;;;;;;;11.82;1.33;;;;;;;-0.30;100.00;97816.84;5053705;28;20028;-71
2024/01/17 09:17:31;;;;;;;8.82;1.27;;;;;;;-0.24;100.00;97827.41;5070485;28;20032;-71
2024/01/17 09:19:56;;;;;;;10.93;1.10;;;;;;;0.21;100.00;97890.25;5087912;28;20555;-71
2024/01/17 09:22:22;;;;;;;9.68;1.88;;;;;;;0.27;100.00;97888.63;5053614;28;20082;-72
2024/01/17 09:24:47;;;;;;;11.93;1.60;;;;;;;0.35;100.00;97888.41;5071649;28;20040;-72
2024/01/17 09:27:12;;;;;;;8.05;1.70;;;;;;;0.55;100.00;97893.66;5087406;28;20040;-71
2024/01/17 09:29:38;;;;;;;12.05;1.70;;;;;;;0.62;100.00;97891.81;5070607;28;20042;-71
2024/01/17 09:32:04;;;;;;;12.95;2.03;;;;;;;0.45;100.00;97865.00;5071476;28;20032;-71
2024/01/17 09:34:32;;;;;;;8.95;1.50;;;;;;;0.53;100.00;97871.88;5071727;28;20047;-71
2024/01/17 09:36:59;;;;;;;9.30;1.55;;;;;;;0.73;100.00;97900.94;5071861;28;20028;-71
2024/01/17 09:39:25;;;;;;;14.43;2.25;;;;;;;0.79;100.00;97898.28;5071928;28;20033;-71
2024/01/17 09:41:51;;;;;;;7.80;1.33;;;;;;;0.75;100.00;97881.19;5071436;28;20086;-72
2024/01/17 09:44:17;;;;;;;11.73;1.75;;;;;;;0.76;100.00;97887.31;5071708;28;20044;-71
2024/01/17 09:46:45;;;;;;;11.82;1.55;;;;;;;0.86;100.00;97904.41;5086530;28;20024;-71
2024/01/17 09:49:12;;;;;;;12.68;1.50;;;;;;;0.94;100.00;97896.22;5069968;28;20040;-71
2024/01/17 09:51:37;;;;;;;20.98;2.55;;;;;;;0.96;100.00;97881.94;5070216;28;20452;-72
2024/01/17 09:54:04;;;;;;;9.80;1.40;;;;;;;1.04;100.00;97884.38;5079915;28;20036;-71
2024/01/17 09:56:32;;;;;;;14.82;2.10;;;;;;;1.11;100.00;97901.84;5088423;28;20100;-71
2024/01/17 09:59:02;;;;;;;13.35;1.88;;;;;;;1.02;100.00;97886.41;5070623;28;20028;-71
2024/01/17 10:01:30;;;;;;;10.90;1.83;;;;;;;1.26;100.00;97890.16;5072059;28;20033;-71
2024/01/17 10:03:59;;;;;;;16.60;2.05;;;;;;;1.15;100.00;97873.13;5069669;28;20025;-72
2024/01/17 10:06:25;;;;;;;17.05;2.55;;;;;;;1.10;100.00;97902.06;5071273;28;20131;-70
2024/01/17 10:08:52;;;;;;;14.27;2.13;;;;;;;1.09;100.00;97903.91;5052785;28;20681;-71
2024/01/17 10:11:18;;;;;;;15.98;3.03;;;;;;;1.05;100.00;97923.88;5055494;28;20032;-72
2024/01/17 10:13:43;;;;;;;13.82;1.98;;;;;;;1.02;100.00;97931.41;5073250;28;20028;-72
2024/01/17 10:16:09;;;;;;;19.48;1.98;;;;;;;1.02;100.00;97934.88;5072149;28;20052;-71
2024/01/17 10:18:35;;;;;;;12.20;2.45;;;;;;;0.96;100.00;97930.44;5073609;28;20146;-71
2024/01/17 10:21:03;;;;;;;13.48;2.15;;;;;;;0.93;100.00;97936.16;5074593;28;20550;-71
2024/01/17 10:23:29;;;;;;;12.25;1.95;;;;;;;0.93;100.00;97930.84;5073236;28;20783;-71
2024/01/17 10:25:56;;;;;;;16.70;1.88;;;;;;;0.96;100.00;97948.13;5073310;28;20036;-72
2024/01/17 10:28:22;;;;;;;13.80;2.30;;;;;;;0.91;100.00;97922.28;5056940;28;20430;-71
2024/01/17 10:30:48;;;;;;;12.32;2.05;;;;;;;0.97;100.00;97941.84;5072787;28;20036;-71
2024/01/17 10:33:13;;;;;;;15.70;1.92;;;;;;;0.87;100.00;97921.09;5073253;28;20033;-71
2024/01/17 10:35:39;;;;;;;17.58;2.03;;;;;;;1.05;100.00;97944.25;5072211;28;20448;-70
2024/01/17 10:38:04;;;;;;;8.77;1.70;;;;;;;0.96;100.00;97950.78;5090288;28;20025;-71
2024/01/17 10:40:29;;;;;;;15.90;1.95;;;;;;;1.01;100.00;97959.72;5074286;28;20052;-71
2024/01/17 10:43:09;;;;;;;16.27;1.90;;;;;;;1.04;100.00;97954.03;5090033;28;20060;-71
2024/01/17 10:45:39;;;;;;;11.75;1.92;;;;;;;1.10;100.00;97963.78;5060781;28;20024;-71
2024/01/17 10:48:08;;;;;;;13.70;1.42;;;;;;;1.06;100.00;97945.88;5073673;28;20024;-71
2024/01/17 10:50:34;;;;;;;11.40;2.05;;;;;;;0.98;100.00;97933.69;5074413;28;20487;-71
2024/01/17 10:53:05;;;;;;;13.25;1.70;;;;;;;1.11;100.00;97968.06;5073979;28;20060;-70
2024/01/17 10:55:35;;;;;;;16.60;2.33;;;;;;;1.16;100.00;97965.63;5074466;28;20029;-71
2024/01/17 10:58:13;;;;;;;11.88;1.85;;;;;;;1.05;100.00;97954.84;5072713;28;20020;-70
2024/01/17 11:00:43;;;;;;;10.90;1.80;;;;;;;1.06;100.00;97965.25;5074265;28;20493;-71
2024/01/17 11:03:16;;;;;;;14.85;2.03;;;;;;;1.05;100.00;97976.03;5073717;28;20119;-71
2024/01/17 11:05:49;;;;;;;14.68;2.17;;;;;;;1.11;100.00;97964.59;5074416;28;20024;-70
2024/01/17 11:08:16;;;;;;;12.87;2.13;;;;;;;1.03;100.00;97970.13;5072301;28;20066;-70
2024/01/17 11:10:43;;;;;;;10.27;1.83;;;;;;;0.63;100.00;97904.84;5072500;28;20064;-71
2024/01/17 11:13:12;;;;;;;18.33;2.60;;;;;;;1.05;100.00;97982.13;5089124;28;20115;-72
2024/01/17 11:15:38;;;;;;;11.65;2.10;;;;;;;1.02;100.00;97979.06;5073879;28;20036;-71
2024/01/17 11:18:05;;;;;;;10.77;1.70;;;;;;;1.03;100.00;97986.84;5056261;28;20089;-71